Time;durP1;ratioP1;P1;durP2;ratioP2;P2;SDS_P1;SDS_P2;PMS_P1;PMS_P2;Temp;Humidity;BMP_temperature;BMP_pressure;BME280_temperature;BME280_humidity;BME280_pressure;Samples;Min_cycle;Max_cycle;Signal;HPM_P1;HPM_P2
2022/07/15 00:00:08;;;;;;;7.38;2.35;;;18.70;72.70;;;;;;4972753;28;20140;-62
2022/07/15 00:02:34;;;;;;;4.22;2.35;;;18.80;72.80;;;;;;4971464;28;20123;-62
2022/07/15 00:04:59;;;;;;;4.68;2.42;;;18.80;73.90;;;;;;4966442;28;20461;-62
2022/07/15 00:07:25;;;;;;;5.35;2.30;;;18.80;74.10;;;;;;4964534;28;20106;-62
2022/07/15 00:12:35;;;;;;;8.73;2.38;;;18.80;72.10;;;;;;4951437;28;20063;-62
2022/07/15 00:15:01;;;;;;;7.38;2.22;;;18.80;72.60;;;;;;4958887;28;20019;-62
2022/07/15 00:17:27;;;;;;;6.53;2.30;;;18.80;71.80;;;;;;4968841;28;20086;-62
2022/07/15 00:19:53;;;;;;;6.18;2.00;;;18.80;72.00;;;;;;4969473;28;20670;-62
2022/07/15 00:22:18;;;;;;;5.55;2.20;;;18.70;73.70;;;;;;4968342;28;20047;-62
2022/07/15 00:24:44;;;;;;;4.70;1.90;;;18.70;72.00;;;;;;4951965;29;20034;-62
2022/07/15 00:27:11;;;;;;;9.35;2.15;;;18.70;73.50;;;;;;4951602;28;20027;-62
2022/07/15 00:29:37;;;;;;;4.38;1.90;;;18.60;73.00;;;;;;4968144;28;20085;-62
2022/07/15 00:32:02;;;;;;;6.07;2.20;;;18.60;73.20;;;;;;4968881;28;20030;-62
2022/07/15 00:34:28;;;;;;;13.35;2.30;;;18.60;72.90;;;;;;4970447;28;20038;-62
2022/07/15 00:36:54;;;;;;;6.18;2.17;;;18.50;73.60;;;;;;4961729;28;20081;-62
2022/07/15 00:39:20;;;;;;;6.72;2.00;;;18.40;74.20;;;;;;4961234;28;20504;-62
2022/07/15 00:41:46;;;;;;;3.90;2.00;;;18.40;72.60;;;;;;4951896;29;20389;-62
2022/07/15 00:44:11;;;;;;;6.97;2.15;;;18.40;73.60;;;;;;4956817;28;20031;-62
2022/07/15 00:46:37;;;;;;;5.40;2.28;;;18.40;72.40;;;;;;4969731;28;20528;-62
2022/07/15 00:49:06;;;;;;;6.20;1.95;;;18.30;72.10;;;;;;4965928;28;20063;-62
2022/07/15 00:51:52;;;;;;;8.60;2.25;;;18.30;72.80;;;;;;4969141;28;20022;-62
2022/07/15 00:54:23;;;;;;;7.03;2.05;;;18.20;74.00;;;;;;4951561;28;20031;-62
2022/07/15 00:56:51;;;;;;;8.25;1.80;;;18.10;72.60;;;;;;4951814;28;20038;-62
2022/07/15 00:59:22;;;;;;;4.45;1.92;;;18.00;72.40;;;;;;4968921;28;20035;-63
2022/07/15 01:01:49;;;;;;;8.07;1.90;;;18.10;72.70;;;;;;4969379;28;20125;-62
2022/07/15 01:04:17;;;;;;;12.23;2.00;;;18.00;73.70;;;;;;4972068;28;20035;-62
2022/07/15 01:06:43;;;;;;;3.72;1.60;;;17.90;73.60;;;;;;4969248;28;20713;-62
2022/07/15 01:09:09;;;;;;;7.10;1.92;;;17.90;74.40;;;;;;4954349;28;20066;-61
2022/07/15 01:11:35;;;;;;;5.10;2.05;;;17.80;74.70;;;;;;4964823;28;20031;-62
2022/07/15 01:14:03;;;;;;;6.85;2.03;;;17.70;74.30;;;;;;4965980;28;20031;-62
2022/07/15 01:16:29;;;;;;;3.92;2.05;;;17.70;75.50;;;;;;4965642;28;20039;-62
2022/07/15 01:18:55;;;;;;;3.08;1.77;;;17.50;76.90;;;;;;4960820;28;20038;-61
2022/07/15 01:21:21;;;;;;;7.75;2.30;;;17.30;77.00;;;;;;4967496;28;20665;-62
2022/07/15 01:23:47;;;;;;;4.53;1.75;;;17.20;77.80;;;;;;4960557;28;20031;-62
2022/07/15 01:26:14;;;;;;;7.72;1.95;;;17.10;77.70;;;;;;4968076;28;20026;-62
2022/07/15 01:28:41;;;;;;;6.38;2.13;;;17.00;78.00;;;;;;4955383;28;20034;-62
2022/07/15 01:31:07;;;;;;;4.97;2.38;;;17.00;78.30;;;;;;4962684;28;20488;-62
2022/07/15 01:33:33;;;;;;;5.32;1.85;;;17.10;78.90;;;;;;4962714;28;20042;-62
2022/07/15 01:36:00;;;;;;;4.05;2.25;;;17.00;78.70;;;;;;4969910;28;20077;-61
2022/07/15 01:38:27;;;;;;;4.45;2.00;;;17.00;79.60;;;;;;4964502;28;20030;-62
2022/07/15 01:40:52;;;;;;;8.38;2.22;;;17.00;79.60;;;;;;4969504;28;20079;-61
2022/07/15 01:43:18;;;;;;;4.55;2.08;;;17.00;80.50;;;;;;4962079;28;20042;-62
2022/07/15 01:45:45;;;;;;;4.05;1.80;;;16.90;80.70;;;;;;4971462;28;20039;-62
2022/07/15 01:49:21;;;;;;;7.68;1.75;;;16.90;81.30;;;;;;4975656;28;20093;-62
2022/07/15 01:50:58;;;;;;;6.03;2.00;;;16.80;81.50;;;;;;4968169;28;20031;-62
2022/07/15 01:53:25;;;;;;;4.70;1.98;;;16.80;81.40;;;;;;4966590;28;20020;-62
2022/07/15 01:55:51;;;;;;;4.47;1.88;;;16.80;81.90;;;;;;4966653;28;20105;-62
2022/07/15 01:58:17;;;;;;;7.75;2.38;;;16.60;82.20;;;;;;4969717;28;20505;-62
2022/07/15 02:00:43;;;;;;;6.40;2.20;;;16.60;82.60;;;;;;4973072;28;20102;-62
2022/07/15 02:03:09;;;;;;;6.82;2.20;;;16.60;82.70;;;;;;4970731;28;20182;-62
2022/07/15 02:05:35;;;;;;;4.05;2.00;;;16.50;82.90;;;;;;4973183;28;20063;-62
2022/07/15 02:08:02;;;;;;;12.90;2.08;;;16.50;83.20;;;;;;4959881;28;20087;-61
2022/07/15 02:10:39;;;;;;;6.45;2.30;;;16.40;84.30;;;;;;4953105;28;20062;-62
2022/07/15 02:13:13;;;;;;;7.60;2.55;;;16.30;84.20;;;;;;4967560;28;20047;-62
2022/07/15 02:15:40;;;;;;;4.53;2.30;;;16.20;85.80;;;;;;4972453;28;20026;-62
2022/07/15 02:18:07;;;;;;;8.18;2.17;;;16.00;87.30;;;;;;4976864;28;20102;-62
2022/07/15 02:20:33;;;;;;;8.95;2.35;;;16.00;86.70;;;;;;4972240;28;20027;-62
2022/07/15 02:22:59;;;;;;;7.18;2.22;;;15.90;87.40;;;;;;4956014;28;20039;-61
2022/07/15 02:25:26;;;;;;;5.07;2.20;;;15.80;88.00;;;;;;4972827;28;20034;-61
2022/07/15 02:27:57;;;;;;;6.95;2.78;;;15.70;88.10;;;;;;4970899;28;20109;-61
2022/07/15 02:30:27;;;;;;;7.88;2.75;;;15.60;88.30;;;;;;4973572;28;20514;-61
2022/07/15 02:32:53;;;;;;;3.72;2.45;;;15.50;89.10;;;;;;4956750;28;20083;-62
2022/07/15 02:35:19;;;;;;;4.35;2.20;;;15.30;90.30;;;;;;4971663;28;20067;-61
2022/07/15 02:37:45;;;;;;;6.10;2.45;;;15.10;90.50;;;;;;4970987;28;20529;-61
2022/07/15 02:40:12;;;;;;;7.13;2.28;;;15.00;90.90;;;;;;4971766;28;20042;-61
2022/07/15 02:42:38;;;;;;;4.13;2.30;;;14.90;91.10;;;;;;4969190;28;20034;-62
2022/07/15 02:45:04;;;;;;;12.25;2.72;;;14.90;90.90;;;;;;4954963;28;20035;-63
2022/07/15 02:47:30;;;;;;;5.30;2.10;;;14.90;91.00;;;;;;4974871;28;20508;-61
2022/07/15 02:49:55;;;;;;;4.88;2.58;;;14.90;91.50;;;;;;4956979;28;20035;-62
2022/07/15 02:52:21;;;;;;;5.95;2.53;;;14.90;92.00;;;;;;4968957;28;20086;-61
2022/07/15 02:54:47;;;;;;;9.63;2.55;;;14.90;91.80;;;;;;4964107;28;20023;-62
2022/07/15 02:57:13;;;;;;;3.95;2.20;;;14.90;91.90;;;;;;4953256;28;20143;-61
2022/07/15 02:59:39;;;;;;;10.32;2.50;;;14.90;91.70;;;;;;4961151;28;20053;-61
2022/07/15 03:02:04;;;;;;;10.02;2.70;;;14.80;91.70;;;;;;4956483;28;20036;-61
2022/07/15 03:04:30;;;;;;;6.22;2.47;;;14.60;92.10;;;;;;4969717;28;20027;-62
2022/07/15 03:06:56;;;;;;;6.88;2.53;;;14.50;92.40;;;;;;4971751;28;20027;-61
2022/07/15 03:09:21;;;;;;;8.20;2.58;;;14.30;93.10;;;;;;4972131;28;20059;-61
2022/07/15 03:11:47;;;;;;;10.30;3.00;;;14.30;93.40;;;;;;4964006;28;20410;-62
2022/07/15 03:14:13;;;;;;;8.10;2.47;;;14.20;94.00;;;;;;4970801;28;20043;-62
2022/07/15 03:16:38;;;;;;;3.70;2.38;;;14.20;93.90;;;;;;4959984;28;20039;-62
2022/07/15 03:19:04;;;;;;;9.02;2.60;;;14.20;94.50;;;;;;4963615;28;20098;-61
2022/07/15 03:21:30;;;;;;;5.82;2.70;;;14.10;94.60;;;;;;4966768;28;20038;-61
2022/07/15 03:23:56;;;;;;;7.97;3.00;;;14.20;94.70;;;;;;4961306;28;20038;-61
2022/07/15 03:26:21;;;;;;;4.68;2.55;;;14.20;94.90;;;;;;4960292;28;20106;-61
2022/07/15 03:28:47;;;;;;;6.15;2.78;;;14.20;95.10;;;;;;4968815;28;20042;-61
2022/07/15 03:31:13;;;;;;;4.25;2.70;;;14.20;94.70;;;;;;4964323;28;20109;-61
2022/07/15 03:33:38;;;;;;;8.70;2.75;;;14.20;94.80;;;;;;4971521;28;20031;-61
2022/07/15 03:36:05;;;;;;;6.07;2.80;;;14.20;94.80;;;;;;4963647;28;20557;-61
2022/07/15 03:38:31;;;;;;;4.63;2.58;;;14.10;95.20;;;;;;4953912;28;20062;-61
2022/07/15 03:40:57;;;;;;;3.92;2.35;;;14.00;95.40;;;;;;4966726;28;20070;-62
2022/07/15 03:43:26;;;;;;;5.95;2.63;;;14.10;95.80;;;;;;4957751;28;20078;-61
2022/07/15 03:45:52;;;;;;;10.80;3.20;;;14.00;95.60;;;;;;4969969;28;20038;-61
2022/07/15 03:48:19;;;;;;;6.55;2.70;;;14.10;95.50;;;;;;4959348;28;20023;-61
2022/07/15 03:50:44;;;;;;;6.75;2.92;;;14.10;95.50;;;;;;4967630;28;20058;-61
2022/07/15 03:53:10;;;;;;;4.32;2.72;;;14.00;95.70;;;;;;4960551;28;20066;-61
2022/07/15 03:55:37;;;;;;;8.77;2.90;;;13.90;96.10;;;;;;4969535;28;20078;-61
2022/07/15 03:58:03;;;;;;;4.93;2.60;;;14.00;96.20;;;;;;4964669;28;20038;-61
2022/07/15 04:00:29;;;;;;;7.72;2.92;;;13.90;96.20;;;;;;4964892;28;20058;-61
2022/07/15 04:02:55;;;;;;;6.43;2.63;;;13.80;96.50;;;;;;4960375;28;20035;-61
2022/07/15 04:05:23;;;;;;;9.65;3.13;;;13.70;97.30;;;;;;4971120;28;20118;-61
2022/07/15 04:07:49;;;;;;;4.72;2.95;;;13.70;97.50;;;;;;4970607;28;20061;-61
2022/07/15 04:10:15;;;;;;;7.72;2.88;;;13.80;97.30;;;;;;4969478;28;21317;-61
2022/07/15 04:12:41;;;;;;;7.85;3.22;;;14.00;97.10;;;;;;4972663;28;20064;-61
2022/07/15 04:15:07;;;;;;;9.45;3.22;;;14.30;96.60;;;;;;4970149;28;20031;-61
2022/07/15 04:17:34;;;;;;;6.22;3.03;;;14.30;96.30;;;;;;4969677;28;20552;-61
2022/07/15 04:20:00;;;;;;;10.65;3.40;;;14.30;96.40;;;;;;4967326;28;20927;-61
2022/07/15 04:22:26;;;;;;;7.30;3.20;;;14.40;96.30;;;;;;4973334;28;20101;-61
2022/07/15 04:24:51;;;;;;;6.20;3.00;;;14.50;96.20;;;;;;4971739;28;20458;-61
2022/07/15 04:27:17;;;;;;;7.28;2.60;;;14.60;96.10;;;;;;4968742;28;20384;-61
2022/07/15 04:29:43;;;;;;;4.57;2.75;;;14.70;96.00;;;;;;4965493;28;20137;-61
2022/07/15 04:32:09;;;;;;;6.18;2.80;;;14.70;96.00;;;;;;4963519;28;20222;-61
2022/07/15 04:34:34;;;;;;;9.00;3.13;;;14.90;95.80;;;;;;4967864;28;20030;-62
2022/07/15 04:37:00;;;;;;;7.53;3.28;;;15.00;95.50;;;;;;4965683;28;20041;-61
2022/07/15 04:39:26;;;;;;;4.32;2.65;;;15.10;95.50;;;;;;4969837;28;20061;-61
2022/07/15 04:41:51;;;;;;;4.28;2.75;;;15.10;95.50;;;;;;4972440;28;20039;-61
2022/07/15 04:44:20;;;;;;;6.82;3.10;;;15.10;95.90;;;;;;4969884;28;20708;-61
2022/07/15 04:46:46;;;;;;;7.07;3.10;;;15.20;95.90;;;;;;4962328;28;20036;-61
2022/07/15 04:51:55;;;;;;;8.38;3.28;;;15.60;95.10;;;;;;4969381;28;20436;-61
2022/07/15 04:54:21;;;;;;;7.80;3.40;;;15.70;94.60;;;;;;4970852;28;20054;-61
2022/07/15 04:56:47;;;;;;;7.85;3.58;;;15.70;94.40;;;;;;4970218;28;20121;-61
2022/07/15 04:59:12;;;;;;;6.90;3.42;;;15.90;94.40;;;;;;4968808;28;20529;-61
2022/07/15 05:01:38;;;;;;;9.40;3.58;;;16.10;93.90;;;;;;4968021;28;20181;-62
2022/07/15 05:04:04;;;;;;;9.65;4.13;;;16.00;94.00;;;;;;4970708;28;20109;-61
2022/07/15 05:06:29;;;;;;;8.40;4.05;;;16.10;94.20;;;;;;4969987;28;20034;-62
2022/07/15 05:08:55;;;;;;;8.07;3.85;;;16.00;94.10;;;;;;4971039;28;20047;-61
2022/07/15 05:11:21;;;;;;;11.02;3.85;;;16.10;94.20;;;;;;4968727;28;20042;-61
2022/07/15 05:13:46;;;;;;;9.35;4.03;;;16.10;94.50;;;;;;4970421;28;20030;-61
2022/07/15 05:16:12;;;;;;;7.25;4.03;;;16.00;94.70;;;;;;4971120;28;20035;-61
2022/07/15 05:18:38;;;;;;;13.57;4.30;;;16.10;94.70;;;;;;4974870;28;20116;-61
2022/07/15 05:21:04;;;;;;;9.20;4.18;;;16.10;94.70;;;;;;4967811;28;20489;-61
2022/07/15 05:23:29;;;;;;;10.63;4.30;;;16.10;94.70;;;;;;4963513;28;20037;-61
2022/07/15 05:25:55;;;;;;;8.65;4.28;;;16.10;95.20;;;;;;4964470;28;20884;-61
2022/07/15 05:28:21;;;;;;;10.13;4.15;;;16.00;95.30;;;;;;4965588;28;20031;-62
2022/07/15 05:30:47;;;;;;;9.75;4.13;;;16.10;95.60;;;;;;4960651;28;20085;-62
2022/07/15 05:33:15;;;;;;;9.93;3.80;;;16.20;95.70;;;;;;4955453;28;20027;-61
2022/07/15 05:35:41;;;;;;;10.30;4.30;;;16.40;95.50;;;;;;4976449;28;20481;-60
2022/07/15 05:38:07;;;;;;;13.13;5.20;;;16.50;95.30;;;;;;4975064;28;20033;-61
2022/07/15 05:40:33;;;;;;;13.40;4.38;;;16.70;95.20;;;;;;4974463;28;20507;-61
2022/07/15 05:42:59;;;;;;;8.90;4.05;;;16.80;95.10;;;;;;4971852;28;20035;-61
2022/07/15 05:45:25;;;;;;;7.10;3.65;;;16.80;94.90;;;;;;5002107;28;20488;-61
2022/07/15 05:47:51;;;;;;;9.07;3.80;;;17.00;95.10;;;;;;4971908;28;20031;-60
2022/07/15 05:50:17;;;;;;;9.68;3.60;;;17.10;94.80;;;;;;4970660;28;20030;-61
2022/07/15 05:52:43;;;;;;;9.95;4.03;;;17.10;94.40;;;;;;4974934;28;20469;-61
2022/07/15 05:55:09;;;;;;;8.05;3.80;;;17.20;94.40;;;;;;4972815;28;20038;-61
2022/07/15 05:57:34;;;;;;;12.57;4.22;;;17.20;94.70;;;;;;4972226;28;20057;-61
2022/07/15 06:00:00;;;;;;;7.10;3.10;;;17.30;94.70;;;;;;4972302;28;20373;-61
2022/07/15 06:02:26;;;;;;;12.32;3.13;;;17.40;94.60;;;;;;4968550;28;20035;-61
2022/07/15 06:04:51;;;;;;;7.38;3.47;;;17.70;94.10;;;;;;4971587;28;20031;-61
2022/07/15 06:07:17;;;;;;;10.48;3.58;;;17.90;92.90;;;;;;4973478;28;20031;-61
2022/07/15 06:09:42;;;;;;;6.03;3.50;;;18.00;92.70;;;;;;4973410;28;20090;-61
2022/07/15 06:12:09;;;;;;;7.82;3.05;;;18.20;92.20;;;;;;4972246;28;20034;-61
2022/07/15 06:14:35;;;;;;;7.97;2.85;;;18.30;92.00;;;;;;4972607;28;20512;-61
2022/07/15 06:17:01;;;;;;;7.00;2.95;;;18.50;91.70;;;;;;4970443;28;20031;-61
2022/07/15 06:19:27;;;;;;;7.78;3.05;;;18.70;90.70;;;;;;4969522;28;20030;-61
2022/07/15 06:21:52;;;;;;;6.43;2.95;;;18.70;90.00;;;;;;4973998;28;20038;-61
2022/07/15 06:24:19;;;;;;;12.80;2.97;;;18.80;88.30;;;;;;4973364;28;20084;-61
2022/07/15 06:26:45;;;;;;;5.43;2.65;;;18.90;89.20;;;;;;4970742;28;20049;-61
2022/07/15 06:29:10;;;;;;;8.02;3.30;;;19.00;87.50;;;;;;4987322;28;20030;-61
2022/07/15 06:31:36;;;;;;;4.45;2.47;;;19.20;87.30;;;;;;4978487;28;20027;-61
2022/07/15 06:34:02;;;;;;;6.20;3.00;;;19.30;88.60;;;;;;4953807;28;20031;-61
2022/07/15 06:36:27;;;;;;;9.02;3.22;;;19.40;86.80;;;;;;4959941;28;20019;-61
2022/07/15 06:38:54;;;;;;;6.60;3.22;;;19.30;87.80;;;;;;4973676;28;20102;-61
2022/07/15 06:41:20;;;;;;;7.32;3.17;;;19.40;88.00;;;;;;4971985;28;20039;-61
2022/07/15 06:43:45;;;;;;;9.27;3.10;;;19.60;89.30;;;;;;4967803;28;20035;-61
2022/07/15 06:46:12;;;;;;;6.90;3.10;;;19.70;88.00;;;;;;4963902;28;20146;-61
2022/07/15 06:48:39;;;;;;;7.85;2.90;;;19.80;87.10;;;;;;4973039;28;20039;-61
2022/07/15 06:51:05;;;;;;;7.72;2.67;;;19.90;85.80;;;;;;4972406;28;20019;-61
2022/07/15 06:53:31;;;;;;;15.90;2.78;;;20.00;83.30;;;;;;4970074;28;20034;-61
2022/07/15 06:55:56;;;;;;;10.30;3.42;;;20.10;83.70;;;;;;4963432;28;20027;-60
2022/07/15 06:58:22;;;;;;;8.13;2.80;;;20.30;85.30;;;;;;4971091;28;20034;-60
2022/07/15 07:00:48;;;;;;;6.40;2.97;;;20.50;84.30;;;;;;4980820;28;20030;-60
2022/07/15 07:03:13;;;;;;;13.82;3.30;;;20.60;81.50;;;;;;4972159;28;20045;-61
2022/07/15 07:05:39;;;;;;;10.93;2.80;;;20.60;79.20;;;;;;4963387;28;20054;-61
2022/07/15 07:08:05;;;;;;;10.80;3.08;;;20.70;82.40;;;;;;4971179;28;20035;-60
2022/07/15 07:10:31;;;;;;;9.65;3.10;;;20.70;80.00;;;;;;4972162;28;20142;-60
2022/07/15 07:12:57;;;;;;;6.60;2.67;;;20.80;80.80;;;;;;4970710;28;20089;-60
2022/07/15 07:15:23;;;;;;;4.97;2.60;;;20.80;76.90;;;;;;4952947;28;20035;-61
2022/07/15 07:17:52;;;;;;;9.60;2.70;;;20.80;72.10;;;;;;4968831;28;20405;-61
2022/07/15 07:20:18;;;;;;;4.95;2.70;;;21.10;76.90;;;;;;4970408;28;20113;-60
2022/07/15 07:22:44;;;;;;;9.48;2.97;;;21.20;73.30;;;;;;4976592;28;20211;-60
2022/07/15 07:25:10;;;;;;;5.28;2.50;;;21.10;69.20;;;;;;4973406;28;20027;-60
2022/07/15 07:27:35;;;;;;;4.90;2.47;;;21.10;72.10;;;;;;4972532;28;20034;-61
2022/07/15 07:30:02;;;;;;;5.78;2.25;;;21.30;70.50;;;;;;4972295;28;20238;-60
2022/07/15 07:32:28;;;;;;;6.10;2.88;;;21.50;72.10;;;;;;4971900;28;20425;-61
2022/07/15 07:34:54;;;;;;;5.30;2.67;;;21.60;70.60;;;;;;4972792;28;20057;-61
2022/07/15 07:37:20;;;;;;;8.88;2.85;;;21.80;70.20;;;;;;4971784;28;20037;-61
2022/07/15 07:39:45;;;;;;;6.40;2.60;;;21.90;69.30;;;;;;4970514;28;20049;-61
2022/07/15 07:42:11;;;;;;;6.55;2.53;;;22.00;67.80;;;;;;4971767;28;20027;-61
2022/07/15 07:44:37;;;;;;;6.75;2.75;;;22.10;67.50;;;;;;4974092;28;20039;-61
2022/07/15 07:47:03;;;;;;;6.82;2.47;;;22.20;69.00;;;;;;4970656;28;20143;-61
2022/07/15 07:49:28;;;;;;;6.97;2.40;;;22.30;70.30;;;;;;4964343;28;20031;-62
2022/07/15 07:51:54;;;;;;;6.72;2.45;;;22.40;64.60;;;;;;4951530;28;20027;-62
2022/07/15 07:54:21;;;;;;;9.82;2.80;;;22.40;65.30;;;;;;4966374;28;20041;-61
2022/07/15 07:56:47;;;;;;;6.30;2.67;;;22.50;64.70;;;;;;4961728;28;20033;-61
2022/07/15 07:59:13;;;;;;;5.97;2.80;;;22.50;64.30;;;;;;4970682;28;20035;-61
2022/07/15 08:01:38;;;;;;;5.55;2.88;;;22.50;63.00;;;;;;4971157;28;20054;-62
2022/07/15 08:04:04;;;;;;;3.85;2.20;;;22.60;67.80;;;;;;4971826;28;20085;-61
2022/07/15 08:06:30;;;;;;;5.65;2.30;;;22.80;67.60;;;;;;4969384;28;20504;-61
2022/07/15 08:08:56;;;;;;;7.93;2.80;;;22.90;64.80;;;;;;4964749;28;20031;-61
2022/07/15 08:11:22;;;;;;;6.05;2.88;;;23.10;63.40;;;;;;4952204;29;20561;-61
2022/07/15 08:13:47;;;;;;;6.72;3.08;;;23.10;62.60;;;;;;4971460;28;20081;-61
2022/07/15 08:16:13;;;;;;;7.85;2.90;;;22.90;63.50;;;;;;4970829;28;20073;-61
2022/07/15 08:18:39;;;;;;;3.80;2.50;;;22.80;63.50;;;;;;5002660;28;20031;-61
2022/07/15 08:21:05;;;;;;;8.32;2.67;;;22.60;62.20;;;;;;4969656;28;20046;-62
2022/07/15 08:23:32;;;;;;;12.52;3.00;;;22.60;61.80;;;;;;4971506;28;20041;-61
2022/07/15 08:25:58;;;;;;;6.25;2.78;;;22.90;62.50;;;;;;4956738;28;20039;-61
2022/07/15 08:28:24;;;;;;;6.43;2.67;;;23.00;61.80;;;;;;4951613;28;20043;-62
2022/07/15 08:30:50;;;;;;;4.85;2.58;;;23.10;62.20;;;;;;4952050;28;20039;-62
2022/07/15 08:33:16;;;;;;;7.00;2.95;;;23.10;61.80;;;;;;4959344;28;20038;-61
2022/07/15 08:35:43;;;;;;;9.10;2.40;;;23.10;61.10;;;;;;4969838;28;20030;-61
2022/07/15 08:38:10;;;;;;;13.07;2.65;;;23.30;61.60;;;;;;4968214;28;20225;-61
2022/07/15 08:40:37;;;;;;;11.48;2.78;;;23.30;59.70;;;;;;4970684;28;20042;-61
2022/07/15 08:43:08;;;;;;;13.30;2.65;;;23.40;59.90;;;;;;4968693;28;20038;-61
2022/07/15 08:45:37;;;;;;;7.35;2.67;;;23.40;58.30;;;;;;4970226;28;20039;-61
2022/07/15 08:48:04;;;;;;;6.13;2.55;;;23.50;60.00;;;;;;4969764;28;20042;-61
2022/07/15 08:50:32;;;;;;;6.53;2.60;;;23.60;58.60;;;;;;4972062;28;20119;-62
2022/07/15 08:52:58;;;;;;;5.78;2.90;;;23.60;58.50;;;;;;4968529;28;20658;-61
2022/07/15 08:55:25;;;;;;;5.53;2.70;;;23.00;58.30;;;;;;4971751;28;20038;-61
2022/07/15 08:57:52;;;;;;;10.38;2.30;;;22.80;58.10;;;;;;4969521;28;20031;-61
2022/07/15 09:00:28;;;;;;;6.70;2.55;;;22.70;62.10;;;;;;4961182;28;20121;-61
2022/07/15 09:03:00;;;;;;;5.50;2.25;;;23.20;59.40;;;;;;4960970;28;20046;-61
2022/07/15 09:05:32;;;;;;;4.70;2.28;;;23.60;57.90;;;;;;4970938;28;20047;-61
2022/07/15 09:08:01;;;;;;;6.35;2.47;;;23.90;57.40;;;;;;4962212;28;20461;-61
2022/07/15 09:10:46;;;;;;;7.85;2.83;;;24.10;56.10;;;;;;4963842;28;20054;-61
2022/07/15 09:13:26;;;;;;;6.82;2.40;;;24.10;56.00;;;;;;4969085;28;20064;-61
2022/07/15 09:15:54;;;;;;;4.38;2.40;;;23.90;55.70;;;;;;4960119;28;20555;-61
2022/07/15 09:18:22;;;;;;;4.55;2.40;;;23.80;56.70;;;;;;4966746;28;20027;-61
2022/07/15 09:20:49;;;;;;;7.90;2.90;;;24.00;56.40;;;;;;4967525;28;20047;-61
2022/07/15 09:23:20;;;;;;;11.32;2.75;;;24.40;58.40;;;;;;4970231;28;20538;-62
2022/07/15 09:25:51;;;;;;;4.50;2.50;;;24.70;56.00;;;;;;4970749;28;20038;-61
2022/07/15 09:28:17;;;;;;;7.00;2.70;;;24.90;55.20;;;;;;4970377;28;20026;-61
2022/07/15 09:33:39;;;;;;;9.07;2.65;;;25.30;59.30;;;;;;4969807;28;20033;-61
2022/07/15 09:36:07;;;;;;;6.55;2.63;;;25.50;55.20;;;;;;4967760;28;20138;-61
2022/07/15 09:38:54;;;;;;;11.07;2.65;;;25.30;53.80;;;;;;4965887;28;20034;-62
2022/07/15 09:41:30;;;;;;;10.50;2.63;;;25.00;54.40;;;;;;4970453;28;20046;-61
2022/07/15 09:44:10;;;;;;;8.05;2.83;;;25.20;55.70;;;;;;4968879;28;20027;-62
2022/07/15 09:46:46;;;;;;;7.50;2.90;;;24.90;54.40;;;;;;4970696;28;20038;-61
2022/07/15 09:49:31;;;;;;;8.60;3.03;;;25.20;57.70;;;;;;4969623;28;20042;-61
2022/07/15 09:51:57;;;;;;;8.73;3.10;;;25.30;54.00;;;;;;4969458;28;20034;-62
2022/07/15 09:54:28;;;;;;;5.88;2.50;;;25.30;55.10;;;;;;4976590;28;20511;-61
2022/07/15 09:56:53;;;;;;;;;;;25.60;55.70;;;;;;4975078;28;20031;-62
2022/07/15 09:59:20;;;;;;;4.35;2.47;;;25.90;54.50;;;;;;4970204;28;19961;-62
2022/07/15 10:01:48;;;;;;;5.22;2.58;;;25.80;54.40;;;;;;4965001;28;20035;-62
2022/07/15 10:04:19;;;;;;;5.05;2.75;;;26.10;55.20;;;;;;4967277;28;20039;-62
2022/07/15 10:06:47;;;;;;;6.03;2.85;;;26.30;53.30;;;;;;4954537;28;20031;-62
2022/07/15 10:09:13;;;;;;;5.75;2.85;;;26.40;54.30;;;;;;4969701;28;20051;-62
2022/07/15 10:11:44;;;;;;;4.78;2.72;;;26.20;52.60;;;;;;4972279;28;20417;-62
2022/07/15 10:14:37;;;;;;;4.95;2.53;;;26.00;52.20;;;;;;4967774;28;20023;-62
2022/07/15 10:17:30;;;;;;;7.22;2.67;;;26.10;53.20;;;;;;4960124;28;20035;-61
2022/07/15 10:20:18;;;;;;;8.10;2.42;;;26.10;53.20;;;;;;4962231;28;20050;-62
2022/07/15 10:23:18;;;;;;;4.32;2.85;;;25.70;51.30;;;;;;4973658;28;20026;-61
2022/07/15 10:26:03;;;;;;;11.40;2.65;;;25.40;56.10;;;;;;4973718;28;20035;-61
2022/07/15 10:28:52;;;;;;;8.30;3.00;;;25.80;56.00;;;;;;4963787;28;20062;-60
2022/07/15 10:31:25;;;;;;;4.18;2.60;;;25.30;53.00;;;;;;4967783;28;20058;-60
2022/07/15 10:34:03;;;;;;;6.07;2.97;;;24.40;56.40;;;;;;4967282;28;20430;-60
2022/07/15 10:36:47;;;;;;;4.68;2.40;;;24.00;56.70;;;;;;4970460;28;20038;-60
2022/07/15 10:39:20;;;;;;;9.50;2.80;;;24.20;58.70;;;;;;4969333;28;20144;-60
2022/07/15 10:41:51;;;;;;;6.35;2.55;;;24.60;57.00;;;;;;4960146;28;20173;-60
2022/07/15 10:44:17;;;;;;;8.25;2.80;;;24.60;57.60;;;;;;4971425;28;20030;-60
2022/07/15 10:46:43;;;;;;;7.28;2.97;;;25.20;57.50;;;;;;4964058;28;20043;-60
2022/07/15 10:49:08;;;;;;;7.75;3.03;;;24.90;54.10;;;;;;4971347;28;20041;-60
2022/07/15 10:51:37;;;;;;;6.97;2.60;;;24.50;56.20;;;;;;4974386;28;20031;-60
2022/07/15 10:54:04;;;;;;;5.22;3.03;;;24.00;55.20;;;;;;4972751;28;20029;-60
2022/07/15 10:56:34;;;;;;;5.38;2.63;;;23.80;59.00;;;;;;4973419;28;20027;-60
2022/07/15 10:59:09;;;;;;;4.53;2.58;;;24.00;57.40;;;;;;4972073;28;20548;-60
2022/07/15 11:01:39;;;;;;;4.43;2.50;;;24.50;56.90;;;;;;4970632;28;20046;-60
2022/07/15 11:04:11;;;;;;;7.15;2.97;;;25.20;55.60;;;;;;4972041;28;20389;-60
2022/07/15 11:07:02;;;;;;;5.38;2.55;;;26.00;57.10;;;;;;4971919;28;20416;-60
2022/07/15 11:09:46;;;;;;;5.38;2.50;;;26.80;54.70;;;;;;4971298;28;20448;-61
2022/07/15 11:12:12;;;;;;;4.32;2.28;;;27.30;52.80;;;;;;4961811;28;20069;-60
2022/07/15 11:14:48;;;;;;;7.03;3.20;;;27.50;52.10;;;;;;4965226;28;20141;-60
2022/07/15 11:17:18;;;;;;;9.15;2.92;;;27.60;53.20;;;;;;4970902;28;20042;-60
2022/07/15 11:20:11;;;;;;;4.22;2.60;;;27.80;53.10;;;;;;4970727;28;21595;-60
2022/07/15 11:22:42;;;;;;;8.30;2.83;;;28.00;52.10;;;;;;4953698;28;20033;-60
2022/07/15 11:25:20;;;;;;;9.82;2.78;;;28.00;50.40;;;;;;4964200;28;20094;-60
2022/07/15 11:28:12;;;;;;;7.18;2.55;;;27.90;50.10;;;;;;4972528;28;20480;-60
2022/07/15 11:30:38;;;;;;;6.53;2.85;;;28.20;50.20;;;;;;4956760;28;20039;-60
2022/07/15 11:33:15;;;;;;;8.40;2.83;;;28.00;49.20;;;;;;4962605;28;20110;-60
2022/07/15 11:35:53;;;;;;;10.55;2.67;;;27.80;50.00;;;;;;4971633;28;20031;-60
2022/07/15 11:38:23;;;;;;;4.82;2.50;;;27.90;48.00;;;;;;4959963;28;20041;-60
2022/07/15 11:46:22;;;;;;;9.98;3.03;;;27.30;48.00;;;;;;4971428;28;20176;-60
2022/07/15 11:48:49;;;;;;;10.32;2.90;;;26.80;50.00;;;;;;4962739;28;20035;-60
2022/07/15 11:51:16;;;;;;;6.03;2.50;;;26.50;53.10;;;;;;4964313;28;20189;-60
2022/07/15 11:53:47;;;;;;;4.07;3.00;;;26.50;55.20;;;;;;4963656;28;20436;-60
2022/07/15 11:56:14;;;;;;;7.07;2.72;;;26.70;51.50;;;;;;4961584;28;20034;-60
2022/07/15 11:58:42;;;;;;;5.55;3.03;;;26.60;51.70;;;;;;4961550;28;20039;-61
2022/07/15 12:01:16;;;;;;;4.20;2.80;;;26.90;54.80;;;;;;4963436;28;20049;-61
2022/07/15 12:03:44;;;;;;;6.30;2.90;;;26.80;51.60;;;;;;4963854;28;20050;-60
2022/07/15 12:06:12;;;;;;;4.78;2.95;;;27.10;52.40;;;;;;4963918;28;20026;-61
2022/07/15 12:08:43;;;;;;;5.13;2.65;;;27.40;51.30;;;;;;4960273;28;20031;-61
2022/07/15 12:11:34;;;;;;;4.68;3.00;;;27.90;50.80;;;;;;4963690;28;20058;-60
2022/07/15 12:14:02;;;;;;;6.10;3.00;;;27.50;47.90;;;;;;4957641;28;20053;-60
2022/07/15 12:16:40;;;;;;;4.70;2.90;;;27.00;50.90;;;;;;4970063;28;20027;-60
2022/07/15 12:19:08;;;;;;;6.22;3.13;;;26.40;51.50;;;;;;4970648;28;20054;-60
2022/07/15 12:21:36;;;;;;;7.55;3.10;;;25.80;52.10;;;;;;4968104;28;20078;-60
2022/07/15 12:24:10;;;;;;;8.88;2.72;;;25.70;51.50;;;;;;4965621;28;20023;-60
2022/07/15 12:26:41;;;;;;;6.82;3.40;;;25.90;54.50;;;;;;4969923;28;20045;-60
2022/07/15 12:29:09;;;;;;;6.18;3.03;;;26.40;52.80;;;;;;4963870;28;20027;-60
2022/07/15 12:31:37;;;;;;;4.10;2.83;;;26.80;50.60;;;;;;4969965;28;20062;-61
2022/07/15 12:34:03;;;;;;;7.10;3.25;;;27.20;51.20;;;;;;4967329;28;20040;-60
2022/07/15 12:36:33;;;;;;;5.10;2.92;;;27.00;48.80;;;;;;4956866;28;20040;-60
2022/07/15 12:39:06;;;;;;;6.50;3.30;;;26.40;51.00;;;;;;4970316;28;20124;-60
2022/07/15 12:41:32;;;;;;;3.58;2.75;;;26.50;55.00;;;;;;4963446;28;20438;-60
2022/07/15 12:44:01;;;;;;;6.78;3.00;;;26.60;48.80;;;;;;4967765;28;20058;-60
2022/07/15 12:46:56;;;;;;;3.85;2.85;;;26.20;49.10;;;;;;4968709;28;20027;-60
2022/07/15 12:49:49;;;;;;;5.65;2.83;;;26.10;51.60;;;;;;4953324;28;20492;-60
2022/07/15 12:52:21;;;;;;;5.90;2.95;;;26.20;52.00;;;;;;4963615;28;20050;-60
2022/07/15 12:54:48;;;;;;;5.93;3.25;;;26.20;52.20;;;;;;4958593;28;20524;-60
2022/07/15 12:57:26;;;;;;;5.65;3.10;;;26.10;52.70;;;;;;4962150;28;20035;-60
2022/07/15 12:59:54;;;;;;;4.25;2.90;;;26.50;52.00;;;;;;4969702;28;20030;-60
2022/07/15 13:02:20;;;;;;;13.93;2.90;;;26.70;51.90;;;;;;4965971;28;20030;-60
2022/07/15 13:04:46;;;;;;;6.47;2.90;;;26.40;50.40;;;;;;4969291;28;20031;-60